Time;durP1;ratioP1;P1;durP2;ratioP2;P2;SDS_P1;SDS_P2;PMS_P1;PMS_P2;Temp;Humidity;BMP_temperature;BMP_pressure;BME280_temperature;BME280_humidity;BME280_pressure;Samples;Min_cycle;Max_cycle;Signal;HPM_P1;HPM_P2
2023/08/01 00:01:08;;;;;;;;;;;18.50;99.90;;;;;;7319991;19;9346;-81
2023/08/01 00:03:37;;;;;;;;;;;18.50;99.90;;;;;;7325267;19;9289;-81
2023/08/01 00:06:06;;;;;;;;;;;18.40;99.90;;;;;;7322829;19;9530;-81
2023/08/01 00:08:35;;;;;;;;;;;18.40;99.90;;;;;;7320542;19;8945;-81
2023/08/01 00:11:07;;;;;;;;;;;18.40;99.90;;;;;;7322941;19;9204;-82
2023/08/01 00:13:35;;;;;;;;;;;18.50;99.90;;;;;;7322697;19;9500;-81
2023/08/01 00:16:04;;;;;;;;;;;18.50;99.90;;;;;;7321947;19;9173;-82
2023/08/01 00:18:33;;;;;;;;;;;18.50;99.90;;;;;;7321095;19;9196;-81
2023/08/01 00:21:02;;;;;;;;;;;18.50;99.90;;;;;;7319643;19;9450;-81
2023/08/01 00:23:31;;;;;;;;;;;18.50;99.90;;;;;;7320516;19;9280;-81
2023/08/01 00:26:00;;;;;;;;;;;18.50;99.90;;;;;;7321023;19;10136;-81
2023/08/01 00:28:32;;;;;;;;;;;18.50;99.90;;;;;;7322666;19;9224;-82
2023/08/01 00:31:08;;;;;;;;;;;18.50;99.90;;;;;;7320140;19;9261;-81
2023/08/01 00:33:38;;;;;;;;;;;18.50;99.90;;;;;;7321544;19;9339;-81
2023/08/01 00:36:09;;;;;;;;;;;18.50;99.90;;;;;;7322387;19;9592;-81
2023/08/01 00:38:39;;;;;;;;;;;18.50;99.90;;;;;;7320823;19;9271;-82
2023/08/01 00:41:08;;;;;;;;;;;18.60;99.90;;;;;;7320635;19;9431;-89
2023/08/01 00:43:39;;;;;;;;;;;18.50;99.90;;;;;;7320996;19;9474;-81
2023/08/01 00:46:10;;;;;;;;;;;18.40;99.90;;;;;;7328798;19;9265;-81
2023/08/01 00:48:39;;;;;;;;;;;18.40;99.90;;;;;;7324361;19;10965;-81
2023/08/01 00:51:12;;;;;;;;;;;18.30;99.90;;;;;;7328860;19;9451;-81
2023/08/01 00:53:41;;;;;;;;;;;18.30;99.90;;;;;;7327873;19;9270;-81
2023/08/01 00:56:10;;;;;;;;;;;18.20;99.90;;;;;;7329176;19;9403;-81
2023/08/01 00:58:42;;;;;;;;;;;18.20;99.90;;;;;;7328688;19;9262;-81
2023/08/01 01:01:14;;;;;;;;;;;18.30;99.90;;;;;;7325692;19;9282;-81
2023/08/01 01:03:43;;;;;;;;;;;18.30;99.90;;;;;;7327797;19;9205;-81
2023/08/01 01:06:18;;;;;;;;;;;18.30;99.90;;;;;;7325020;19;9314;-81
2023/08/01 01:08:47;;;;;;;;;;;18.30;99.90;;;;;;7329254;19;9232;-81
2023/08/01 01:11:16;;;;;;;;;;;18.30;99.90;;;;;;7328402;19;9177;-81
2023/08/01 01:13:48;;;;;;;;;;;18.30;99.90;;;;;;7328308;19;9253;-82
2023/08/01 01:16:17;;;;;;;;;;;18.30;99.90;;;;;;7329068;19;9079;-81
2023/08/01 01:18:46;;;;;;;;;;;18.40;99.90;;;;;;7328568;19;9165;-81
2023/08/01 01:21:17;;;;;;;;;;;18.50;99.90;;;;;;7327032;19;9101;-82
2023/08/01 01:23:48;;;;;;;;;;;18.50;99.90;;;;;;7327464;19;9285;-81
2023/08/01 01:26:21;;;;;;;;;;;18.50;99.90;;;;;;7326746;19;10756;-81
2023/08/01 01:28:51;;;;;;;;;;;18.40;99.90;;;;;;7327326;19;9652;-81
2023/08/01 01:31:21;;;;;;;;;;;18.30;99.90;;;;;;7326335;19;9469;-81
2023/08/01 01:33:51;;;;;;;;;;;18.30;99.90;;;;;;7327172;19;9522;-81
2023/08/01 01:36:23;;;;;;;;;;;18.30;99.90;;;;;;7328661;19;9223;-81
2023/08/01 01:38:52;;;;;;;;;;;18.20;99.90;;;;;;7327595;19;9123;-82
2023/08/01 01:41:22;;;;;;;;;;;18.20;99.90;;;;;;7329224;19;9234;-82
2023/08/01 01:43:51;;;;;;;;;;;18.20;99.90;;;;;;7328160;19;9464;-81
2023/08/01 01:46:20;;;;;;;;;;;18.30;99.90;;;;;;7327932;19;9233;-81
2023/08/01 01:48:49;;;;;;;;;;;18.20;99.90;;;;;;7158637;19;14008;-82
2023/08/01 01:51:18;;;;;;;;;;;18.30;99.90;;;;;;7325256;19;9524;-81
2023/08/01 01:53:49;;;;;;;;;;;18.10;99.90;;;;;;7320933;19;9279;-81
2023/08/01 01:56:18;;;;;;;;;;;18.00;99.90;;;;;;7326504;19;9713;-82
2023/08/01 01:58:47;;;;;;;;;;;17.90;99.90;;;;;;7324992;19;10210;-82
2023/08/01 02:01:16;;;;;;;;;;;17.90;99.90;;;;;;7327880;19;9629;-81
2023/08/01 02:03:45;;;;;;;;;;;17.90;99.90;;;;;;7325971;19;9178;-82
2023/08/01 02:06:14;;;;;;;;;;;17.90;99.90;;;;;;7325420;19;9243;-81
2023/08/01 02:08:43;;;;;;;;;;;17.90;99.90;;;;;;7327996;19;9125;-81
2023/08/01 02:11:14;;;;;;;;;;;17.90;99.90;;;;;;7325483;19;9204;-82
2023/08/01 02:13:43;;;;;;;;;;;17.70;99.90;;;;;;7327399;19;9328;-82
2023/08/01 02:16:12;;;;;;;;;;;17.50;99.90;;;;;;7322607;19;9146;-82
2023/08/01 02:18:41;;;;;;;;;;;17.40;99.90;;;;;;7324809;19;9323;-81
2023/08/01 02:21:10;;;;;;;;;;;17.30;99.90;;;;;;7326304;19;9161;-82
2023/08/01 02:23:39;;;;;;;;;;;17.20;99.90;;;;;;7326412;19;9173;-82
2023/08/01 02:26:08;;;;;;;;;;;17.10;99.90;;;;;;7324816;19;9292;-82
2023/08/01 02:28:39;;;;;;;;;;;17.10;99.90;;;;;;7318226;19;9643;-81
2023/08/01 02:31:08;;;;;;;;;;;17.00;99.90;;;;;;7323648;19;9335;-82
2023/08/01 02:33:37;;;;;;;;;;;17.00;99.90;;;;;;7323462;19;9745;-82
2023/08/01 02:36:07;;;;;;;;;;;16.90;99.90;;;;;;7324599;19;8991;-82
2023/08/01 02:38:36;;;;;;;;;;;16.80;99.90;;;;;;7326982;19;10044;-82
2023/08/01 02:41:05;;;;;;;;;;;16.70;99.90;;;;;;7319540;19;9261;-82
2023/08/01 02:43:36;;;;;;;;;;;16.70;99.90;;;;;;7326370;19;9519;-81
2023/08/01 02:46:07;;;;;;;;;;;16.70;99.90;;;;;;7324567;19;9324;-81
2023/08/01 02:48:37;;;;;;;;;;;16.70;99.90;;;;;;7320459;19;9175;-81
2023/08/01 02:51:08;;;;;;;;;;;16.70;99.90;;;;;;7324669;19;9225;-81
2023/08/01 02:53:40;;;;;;;;;;;16.70;99.90;;;;;;7326506;19;9161;-81
2023/08/01 02:56:10;;;;;;;;;;;16.60;99.90;;;;;;7322642;19;9479;-82
2023/08/01 02:58:39;;;;;;;;;;;16.60;99.90;;;;;;7325011;19;9455;-81
2023/08/01 03:01:13;;;;;;;;;;;16.70;99.90;;;;;;7324510;19;9419;-81
2023/08/01 03:03:42;;;;;;;;;;;16.70;99.90;;;;;;7325330;19;9515;-81
2023/08/01 03:06:12;;;;;;;;;;;16.70;99.90;;;;;;7322721;19;9097;-81
2023/08/01 03:08:41;;;;;;;;;;;16.60;99.90;;;;;;7325440;19;9306;-82
2023/08/01 03:11:10;;;;;;;;;;;16.60;99.90;;;;;;7323790;19;9227;-82
2023/08/01 03:13:39;;;;;;;;;;;16.40;99.90;;;;;;7323460;19;9501;-81
2023/08/01 03:16:11;;;;;;;;;;;16.40;99.90;;;;;;7321945;19;9497;-81
2023/08/01 03:18:40;;;;;;;;;;;16.40;99.90;;;;;;7323607;19;9200;-81
2023/08/01 03:21:09;;;;;;;;;;;16.40;99.90;;;;;;7316203;19;10162;-81
2023/08/01 03:23:38;;;;;;;;;;;16.30;99.90;;;;;;7320680;19;9487;-81
2023/08/01 03:26:07;;;;;;;;;;;16.30;99.90;;;;;;7321421;19;9472;-82
2023/08/01 03:28:36;;;;;;;;;;;16.40;99.90;;;;;;7317688;19;10974;-81
2023/08/01 03:31:05;;;;;;;;;;;16.30;99.90;;;;;;7323069;19;9303;-81
2023/08/01 03:33:38;;;;;;;;;;;16.30;99.90;;;;;;7324559;19;9161;-81
2023/08/01 03:36:07;;;;;;;;;;;16.20;99.90;;;;;;7321277;19;8954;-81
2023/08/01 03:38:38;;;;;;;;;;;16.10;99.90;;;;;;7321384;19;9459;-82
2023/08/01 03:41:07;;;;;;;;;;;16.10;99.90;;;;;;7324724;19;9314;-81
2023/08/01 03:43:36;;;;;;;;;;;16.00;99.90;;;;;;7322767;19;9611;-81
2023/08/01 03:46:05;;;;;;;;;;;16.00;99.90;;;;;;7321186;19;9258;-81
2023/08/01 03:48:34;;;;;;;;;;;15.90;99.90;;;;;;7321369;19;9241;-81
2023/08/01 03:51:06;;;;;;;;;;;15.90;99.90;;;;;;7322866;19;9461;-81
2023/08/01 03:53:37;;;;;;;;;;;15.90;99.90;;;;;;7322808;19;9255;-81
2023/08/01 03:56:06;;;;;;;;;;;15.80;99.90;;;;;;7321584;19;9312;-81
2023/08/01 03:58:35;;;;;;;;;;;15.80;99.90;;;;;;7323067;19;10754;-81
2023/08/01 04:01:06;;;;;;;;;;;15.90;99.90;;;;;;7321754;19;9456;-81
2023/08/01 04:03:35;;;;;;;;;;;15.90;99.90;;;;;;7322970;19;9136;-81
2023/08/01 04:06:06;;;;;;;;;;;16.00;99.90;;;;;;7325768;19;9226;-81
2023/08/01 04:08:35;;;;;;;;;;;16.00;99.90;;;;;;7323778;19;9200;-81
2023/08/01 04:11:04;;;;;;;;;;;16.10;99.90;;;;;;7321766;19;9489;-81
2023/08/01 04:13:33;;;;;;;;;;;16.20;99.90;;;;;;7323585;19;9181;-81
2023/08/01 04:16:02;;;;;;;;;;;16.20;99.90;;;;;;7318000;19;10468;-81
2023/08/01 04:18:31;;;;;;;;;;;16.40;99.90;;;;;;7320367;19;9257;-81
2023/08/01 04:21:00;;;;;;;;;;;16.40;99.90;;;;;;7323028;19;9484;-81
2023/08/01 04:23:31;;;;;;;;;;;16.60;99.90;;;;;;7320253;19;9255;-81
2023/08/01 04:26:00;;;;;;;;;;;16.80;99.90;;;;;;7318891;19;9455;-81
2023/08/01 04:28:29;;;;;;;;;;;16.90;99.90;;;;;;7319933;19;9308;-81
2023/08/01 04:30:58;;;;;;;;;;;17.10;99.90;;;;;;7322425;19;9245;-82
2023/08/01 04:33:27;;;;;;;;;;;17.30;99.90;;;;;;7319438;19;9418;-81
2023/08/01 04:35:56;;;;;;;;;;;17.20;99.90;;;;;;7319634;19;9219;-82
2023/08/01 04:38:25;;;;;;;;;;;17.30;99.90;;;;;;7323242;19;9448;-82
2023/08/01 04:40:57;;;;;;;;;;;17.40;99.90;;;;;;7319988;19;8949;-82
2023/08/01 04:43:26;;;;;;;;;;;17.50;99.90;;;;;;7318752;19;9330;-81
2023/08/01 04:45:55;;;;;;;;;;;17.50;99.90;;;;;;7320060;19;9496;-81
2023/08/01 04:48:24;;;;;;;;;;;17.60;99.90;;;;;;7319574;19;9360;-82
2023/08/01 04:50:53;;;;;;;;;;;17.50;99.90;;;;;;7317056;19;9479;-82
2023/08/01 04:53:22;;;;;;;;;;;17.60;99.90;;;;;;7320165;19;9197;-81
2023/08/01 04:55:51;;;;;;;;;;;17.60;99.90;;;;;;7320941;19;9265;-82
2023/08/01 04:58:22;;;;;;;;;;;17.60;99.90;;;;;;7322090;19;9170;-81
2023/08/01 05:00:51;;;;;;;;;;;17.60;99.90;;;;;;7315225;19;9432;-81
2023/08/01 05:03:20;;;;;;;;;;;17.60;99.90;;;;;;7321803;19;9237;-81
2023/08/01 05:05:49;;;;;;;;;;;17.50;99.90;;;;;;7317016;19;9282;-81
2023/08/01 05:08:15;;;;;;;;;;;17.50;99.90;;;;;;7317400;19;9234;-81
2023/08/01 05:10:45;;;;;;;;;;;17.40;99.90;;;;;;7318879;19;9332;-81
2023/08/01 05:13:14;;;;;;;;;;;17.40;99.90;;;;;;7320820;19;9229;-82
2023/08/01 05:15:47;;;;;;;;;;;17.40;99.90;;;;;;7315059;19;9619;-81
2023/08/01 05:18:16;;;;;;;;;;;17.50;99.90;;;;;;7318965;19;11424;-81
2023/08/01 05:20:45;;;;;;;;;;;17.50;99.90;;;;;;7316559;19;9020;-82
2023/08/01 05:23:14;;;;;;;;;;;17.50;99.90;;;;;;7321557;19;9210;-81
2023/08/01 05:25:43;;;;;;;;;;;17.60;99.90;;;;;;7317978;19;9543;-82
2023/08/01 05:28:12;;;;;;;;;;;17.60;99.90;;;;;;7321182;19;9475;-81
2023/08/01 05:30:41;;;;;;;;;;;17.60;99.90;;;;;;7324313;19;10639;-81
2023/08/01 05:33:12;;;;;;;;;;;17.50;99.90;;;;;;7328230;19;9209;-81
2023/08/01 05:35:41;;;;;;;;;;;17.60;99.90;;;;;;7326056;19;9205;-81
2023/08/01 05:38:10;;;;;;;;;;;17.70;99.90;;;;;;7328663;19;9185;-81
2023/08/01 05:40:39;;;;;;;;;;;17.70;99.90;;;;;;7324595;19;10226;-81
2023/08/01 05:43:09;;;;;;;;;;;17.80;99.90;;;;;;7327365;19;9527;-81
2023/08/01 05:45:38;;;;;;;;;;;17.80;99.90;;;;;;7321397;19;9241;-81
2023/08/01 05:48:07;;;;;;;;;;;17.90;99.90;;;;;;7322927;19;9247;-82
2023/08/01 05:50:39;;;;;;;;;;;17.90;99.90;;;;;;7319892;19;9246;-82
2023/08/01 05:53:08;;;;;;;;;;;18.00;99.90;;;;;;7327418;19;9861;-82
2023/08/01 05:55:37;;;;;;;;;;;18.00;99.90;;;;;;7327253;19;9209;-81
2023/08/01 05:58:06;;;;;;;;;;;18.10;99.90;;;;;;7323801;19;9268;-82
2023/08/01 06:00:35;;;;;;;;;;;18.30;99.90;;;;;;7324585;19;9192;-78
2023/08/01 06:03:04;;;;;;;;;;;18.40;99.90;;;;;;7324346;19;9223;-80
2023/08/01 06:05:33;;;;;;;;;;;18.40;99.90;;;;;;7324043;19;9276;-82
2023/08/01 06:08:04;;;;;;;;;;;18.50;99.90;;;;;;7323399;19;9480;-81
2023/08/01 06:10:33;;;;;;;;;;;18.50;99.90;;;;;;7322367;19;9447;-81
2023/08/01 06:13:02;;;;;;;;;;;18.30;99.90;;;;;;7320943;19;9244;-81
2023/08/01 06:15:31;;;;;;;;;;;18.10;99.90;;;;;;7323608;19;9180;-81
2023/08/01 06:18:21;;;;;;;;;;;17.90;99.90;;;;;;7321283;19;9225;-82
2023/08/01 06:20:50;;;;;;;;;;;17.90;99.90;;;;;;7323246;19;9442;-81
2023/08/01 06:23:21;;;;;;;;;;;18.00;99.90;;;;;;7322989;19;9186;-81
2023/08/01 06:25:50;;;;;;;;;;;17.90;99.90;;;;;;7325202;19;9244;-81
2023/08/01 06:28:19;;;;;;;;;;;17.90;99.90;;;;;;7327647;19;9186;-82
2023/08/01 06:30:48;;;;;;;;;;;17.70;99.90;;;;;;7327216;19;9157;-81
2023/08/01 06:33:17;;;;;;;;;;;17.70;99.90;;;;;;7325528;19;9222;-82
2023/08/01 06:35:47;;;;;;;;;;;17.70;99.90;;;;;;7326063;19;9145;-81
2023/08/01 06:38:15;;;;;;;;;;;17.80;99.90;;;;;;7325668;19;9207;-82
2023/08/01 06:40:47;;;;;;;;;;;18.00;99.90;;;;;;7325961;19;9241;-82
2023/08/01 06:43:17;;;;;;;;;;;18.10;99.90;;;;;;7323723;19;9489;-82
2023/08/01 06:45:45;;;;;;;;;;;18.30;99.90;;;;;;7325243;19;9164;-82
2023/08/01 06:48:14;;;;;;;;;;;18.40;99.90;;;;;;7326483;19;9524;-81
2023/08/01 06:50:43;;;;;;;;;;;18.50;99.90;;;;;;7324595;19;9292;-81
2023/08/01 06:53:12;;;;;;;;;;;18.60;99.90;;;;;;7326512;19;9229;-81
2023/08/01 06:55:41;;;;;;;;;;;18.50;99.90;;;;;;7321578;19;9175;-81
2023/08/01 06:58:13;;;;;;;;;;;18.40;99.90;;;;;;7324242;19;9419;-78
2023/08/01 07:00:42;;;;;;;;;;;18.50;99.90;;;;;;7323165;19;9160;-77
2023/08/01 07:03:11;;;;;;;;;;;18.40;99.90;;;;;;7325784;19;9177;-77
2023/08/01 07:05:40;;;;;;;;;;;18.40;99.90;;;;;;7323812;19;9468;-72
2023/08/01 07:08:09;;;;;;;;;;;18.50;99.90;;;;;;7317093;19;9172;-81
2023/08/01 07:10:38;;;;;;;;;;;18.40;99.90;;;;;;7320195;19;9328;-74
2023/08/01 07:13:07;;;;;;;;;;;18.40;99.90;;;;;;7321986;19;9200;-80
2023/08/01 07:15:38;;;;;;;;;;;18.30;99.90;;;;;;7322684;19;9115;-79
2023/08/01 07:18:07;;;;;;;;;;;18.40;99.90;;;;;;7317964;19;9197;-81
2023/08/01 07:20:36;;;;;;;;;;;18.30;99.90;;;;;;7317946;19;9423;-80
2023/08/01 07:23:05;;;;;;;;;;;18.40;99.90;;;;;;7324548;19;9182;-75
2023/08/01 07:25:34;;;;;;;;;;;18.50;99.90;;;;;;7325520;19;9643;-79
2023/08/01 07:28:04;;;;;;;;;;;18.40;99.90;;;;;;7319471;19;9188;-82
2023/08/01 07:30:33;;;;;;;;;;;18.50;99.90;;;;;;7323398;19;9542;-78
2023/08/01 07:33:04;;;;;;;;;;;18.50;99.90;;;;;;7323591;19;8944;-80
2023/08/01 07:35:33;;;;;;;;;;;18.60;99.90;;;;;;7321958;19;9157;-78
2023/08/01 07:38:02;;;;;;;;;;;18.80;99.90;;;;;;7320339;19;9186;-79
2023/08/01 07:40:31;;;;;;;;;;;19.00;99.90;;;;;;7314866;19;9234;-80
2023/08/01 07:43:01;;;;;;;;;;;19.00;99.90;;;;;;7324585;19;9403;-80
2023/08/01 07:45:30;;;;;;;;;;;19.00;99.90;;;;;;7322902;19;9462;-77
2023/08/01 07:47:59;;;;;;;;;;;19.00;99.90;;;;;;7323820;19;9169;-81
2023/08/01 07:50:31;;;;;;;;;;;19.10;99.90;;;;;;7320667;19;10079;-81
2023/08/01 07:53:00;;;;;;;;;;;19.10;99.90;;;;;;7323701;19;9196;-80
2023/08/01 07:55:29;;;;;;;;;;;19.10;99.90;;;;;;7319085;19;9334;-78
2023/08/01 07:57:58;;;;;;;;;;;19.10;99.90;;;;;;7318121;19;9256;-76
2023/08/01 08:00:27;;;;;;;;;;;19.10;99.90;;;;;;7323127;19;9398;-80
2023/08/01 08:02:56;;;;;;;;;;;19.30;99.90;;;;;;7323911;19;9179;-79
2023/08/01 08:05:25;;;;;;;;;;;19.30;99.90;;;;;;7323090;19;9209;-79
2023/08/01 08:07:57;;;;;;;;;;;19.40;99.90;;;;;;7319618;19;9489;-78
2023/08/01 08:10:26;;;;;;;;;;;19.40;99.90;;;;;;7320277;19;8949;-75
2023/08/01 08:12:55;;;;;;;;;;;19.50;99.90;;;;;;7322709;19;9206;-76
2023/08/01 08:15:26;;;;;;;;;;;19.50;99.90;;;;;;7321848;19;9449;-76
2023/08/01 08:17:55;;;;;;;;;;;19.60;99.90;;;;;;7323011;19;9205;-76
2023/08/01 08:20:23;;;;;;;;;;;19.60;99.90;;;;;;7321194;19;11298;-76
2023/08/01 08:22:52;;;;;;;;;;;19.70;99.90;;;;;;7318809;19;9221;-79
2023/08/01 08:25:24;;;;;;;;;;;19.60;99.90;;;;;;7321486;19;11156;-78
2023/08/01 08:27:53;;;;;;;;;;;19.50;99.90;;;;;;7322412;19;10761;-76
2023/08/01 08:30:22;;;;;;;;;;;19.50;99.90;;;;;;7323484;19;9452;-76
2023/08/01 08:32:51;;;;;;;;;;;19.50;99.90;;;;;;7321948;19;9484;-78
2023/08/01 08:35:20;;;;;;;;;;;19.40;99.90;;;;;;7319994;19;9228;-79
2023/08/01 08:37:49;;;;;;;;;;;19.40;99.90;;;;;;7321285;19;9185;-77
2023/08/01 08:40:18;;;;;;;;;;;19.30;99.90;;;;;;7320912;19;9261;-82
2023/08/01 08:42:52;;;;;;;;;;;19.30;99.90;;;;;;7319172;19;9567;-80
2023/08/01 08:45:22;;;;;;;;;;;19.30;99.90;;;;;;7319292;19;11186;-76
2023/08/01 08:48:00;;;;;;;;;;;19.20;99.90;;;;;;7321285;19;9059;-76
2023/08/01 08:50:32;;;;;;;;;;;19.20;99.90;;;;;;7322928;19;9175;-75
2023/08/01 08:53:01;;;;;;;;;;;19.20;99.90;;;;;;7322380;19;9597;-83
2023/08/01 08:55:31;;;;;;;;;;;19.40;99.90;;;;;;7320190;19;10632;-83
2023/08/01 08:58:03;;;;;;;;;;;19.60;99.90;;;;;;7321785;19;9273;-86
2023/08/01 09:00:32;;;;;;;;;;;19.80;99.90;;;;;;7316274;19;9273;-78
2023/08/01 09:03:01;;;;;;;;;;;20.20;99.90;;;;;;7319221;19;9185;-78
2023/08/01 09:05:37;;;;;;;;;;;20.70;99.90;;;;;;7324578;19;9241;-84
2023/08/01 09:08:10;;;;;;;;;;;20.80;99.90;;;;;;7328345;19;9253;-83
2023/08/01 09:10:39;;;;;;;;;;;20.90;99.90;;;;;;7324016;19;9748;-82
2023/08/01 09:13:10;;;;;;;;;;;21.00;99.90;;;;;;7325494;19;9178;-81
2023/08/01 09:15:40;;;;;;;;;;;20.90;99.90;;;;;;7325311;19;9259;-80
2023/08/01 09:18:10;;;;;;;;;;;20.90;99.90;;;;;;7323876;19;8994;-84
2023/08/01 09:20:47;;;;;;;;;;;21.10;99.90;;;;;;7327916;19;10324;-86
2023/08/01 09:23:17;;;;;;;;;;;21.10;99.90;;;;;;7320594;19;9676;-81
2023/08/01 09:25:46;;;;;;;;;;;21.00;99.90;;;;;;7326395;19;9460;-83
2023/08/01 09:28:23;;;;;;;;;;;21.10;99.90;;;;;;7328169;19;9161;-84
2023/08/01 09:30:55;;;;;;;;;;;21.10;99.90;;;;;;7326477;19;9071;-83
2023/08/01 09:33:25;;;;;;;;;;;21.00;99.90;;;;;;7328884;19;9275;-81
2023/08/01 09:35:54;;;;;;;;;;;20.90;99.90;;;;;;7325973;19;9180;-77
2023/08/01 09:38:25;;;;;;;;;;;20.50;99.90;;;;;;7321833;19;9256;-81
2023/08/01 09:40:54;;;;;;;;;;;20.70;99.90;;;;;;7326013;19;10514;-78
2023/08/01 09:43:26;;;;;;;;;;;21.10;99.90;;;;;;7326520;19;8944;-81
2023/08/01 09:45:56;;;;;;;;;;;21.30;99.90;;;;;;7322982;19;9295;-82
2023/08/01 09:48:27;;;;;;;;;;;21.40;99.90;;;;;;7325260;19;11751;-81
2023/08/01 09:51:07;;;;;;;;;;;21.40;99.90;;;;;;7318812;19;9239;-80
2023/08/01 09:53:37;;;;;;;;;;;21.50;99.90;;;;;;7325950;19;9272;-78
2023/08/01 09:56:06;;;;;;;;;;;21.50;99.90;;;;;;7324305;19;9264;-79
2023/08/01 09:58:39;;;;;;;;;;;21.70;99.90;;;;;;7321050;19;9671;-80
2023/08/01 10:01:08;;;;;;;;;;;21.70;99.90;;;;;;7323942;19;9264;-83
2023/08/01 10:03:37;;;;;;;;;;;21.60;99.90;;;;;;7328179;19;9224;-79
2023/08/01 10:06:07;;;;;;;;;;;21.60;99.90;;;;;;7327141;19;9240;-81
2023/08/01 10:08:38;;;;;;;;;;;21.70;99.90;;;;;;7323677;19;9221;-81
2023/08/01 10:11:08;;;;;;;;;;;21.70;99.90;;;;;;7326886;19;10170;-82
2023/08/01 10:13:40;;;;;;;;;;;21.70;99.90;;;;;;7326566;19;9277;-83
2023/08/01 10:16:11;;;;;;;;;;;21.50;99.90;;;;;;7326253;19;9136;-84
2023/08/01 10:18:41;;;;;;;;;;;21.20;99.90;;;;;;7318397;19;9158;-84
2023/08/01 10:21:14;;;;;;;;;;;20.90;99.90;;;;;;7325247;19;9352;-79
2023/08/01 10:23:45;;;;;;;;;;;20.70;99.90;;;;;;7323532;19;9487;-78
2023/08/01 10:26:14;;;;;;;;;;;20.80;99.90;;;;;;7321733;19;9244;-79
2023/08/01 10:28:54;;;;;;;;;;;20.80;99.90;;;;;;7326598;19;9748;-78
2023/08/01 10:31:23;;;;;;;;;;;20.20;99.90;;;;;;7327281;19;8944;-82
2023/08/01 10:33:53;;;;;;;;;;;20.40;99.90;;;;;;7325611;19;9476;-80
2023/08/01 10:36:24;;;;;;;;;;;20.80;99.90;;;;;;7325221;19;9585;-81
2023/08/01 10:38:55;;;;;;;;;;;21.20;99.90;;;;;;7321735;19;10135;-81
2023/08/01 10:41:27;;;;;;;;;;;21.50;99.90;;;;;;7323735;19;9292;-82
2023/08/01 10:44:11;;;;;;;;;;;21.70;99.90;;;;;;7326146;19;9587;-83
2023/08/01 10:46:51;;;;;;;;;;;21.80;99.90;;;;;;7323972;19;9170;-80
2023/08/01 10:49:22;;;;;;;;;;;21.80;99.90;;;;;;7322569;19;9418;-78
2023/08/01 10:51:51;;;;;;;;;;;21.80;99.90;;;;;;7316697;19;9308;-77
2023/08/01 10:54:24;;;;;;;;;;;21.60;99.90;;;;;;7317249;19;9457;-76
2023/08/01 10:56:55;;;;;;;;;;;21.70;99.90;;;;;;7319657;19;9418;-77
2023/08/01 10:59:27;;;;;;;;;;;21.90;99.90;;;;;;7318247;19;9173;-75
2023/08/01 11:02:01;;;;;;;;;;;22.00;99.90;;;;;;7323497;19;9460;-73
2023/08/01 11:04:30;;;;;;;;;;;21.80;99.90;;;;;;7325046;19;9233;-76
2023/08/01 11:06:59;;;;;;;;;;;21.60;99.90;;;;;;7322394;19;9122;-75
2023/08/01 11:09:30;;;;;;;;;;;21.60;99.90;;;;;;7324806;19;9200;-77
2023/08/01 11:12:01;;;;;;;;;;;21.60;99.90;;;;;;7321055;19;9214;-76
2023/08/01 11:14:33;;;;;;;;;;;21.50;99.90;;;;;;7324961;19;9433;-75
2023/08/01 11:17:02;;;;;;;;;;;21.30;99.90;;;;;;7318134;19;9217;-75
2023/08/01 11:19:32;;;;;;;;;;;21.20;99.90;;;;;;7316709;19;9289;-75
2023/08/01 11:22:11;;;;;;;;;;;21.10;99.90;;;;;;7321408;19;9289;-73
2023/08/01 11:24:40;;;;;;;;;;;21.00;99.90;;;;;;7323282;19;9219;-73
2023/08/01 11:27:12;;;;;;;;;;;20.90;99.90;;;;;;7316393;19;9337;-72
2023/08/01 11:29:44;;;;;;;;;;;21.10;99.90;;;;;;7323569;19;9465;-73
2023/08/01 11:32:13;;;;;;;;;;;21.50;99.90;;;;;;7316710;19;9463;-73
2023/08/01 11:35:02;;;;;;;;;;;21.60;99.90;;;;;;7321104;19;9161;-73
2023/08/01 11:37:31;;;;;;;;;;;21.80;99.90;;;;;;7321623;19;9259;-75
2023/08/01 11:40:03;;;;;;;;;;;21.90;99.90;;;;;;7320277;19;9135;-73
2023/08/01 11:42:35;;;;;;;;;;;21.80;99.90;;;;;;7320860;19;11259;-74
2023/08/01 11:45:17;;;;;;;;;;;21.70;99.90;;;;;;7322160;19;9182;-74
2023/08/01 11:47:50;;;;;;;;;;;21.60;99.90;;;;;;7318725;19;9285;-74
2023/08/01 11:50:25;;;;;;;;;;;21.40;99.90;;;;;;7317967;19;10074;-73
2023/08/01 11:52:55;;;;;;;;;;;21.30;99.90;;;;;;7322568;19;9486;-74
2023/08/01 11:55:28;;;;;;;;;;;21.20;99.90;;;;;;7323206;19;9255;-74
2023/08/01 11:57:59;;;;;;;;;;;21.40;99.90;;;;;;7322438;19;9286;-74
2023/08/01 12:00:31;;;;;;;;;;;21.40;99.90;;;;;;7320461;19;9467;-78
2023/08/01 12:03:04;;;;;;;;;;;21.70;99.90;;;;;;7314219;19;9269;-75
2023/08/01 12:05:34;;;;;;;;;;;21.60;99.90;;;;;;7322710;19;9162;-82
2023/08/01 12:08:13;;;;;;;;;;;21.70;99.90;;;;;;7315003;19;9313;-75
2023/08/01 12:10:44;;;;;;;;;;;21.50;99.90;;;;;;7319025;19;9172;-76
2023/08/01 12:13:23;;;;;;;;;;;21.70;99.90;;;;;;7321820;19;9491;-76
2023/08/01 12:15:59;;;;;;;;;;;21.70;99.90;;;;;;7318152;19;9693;-75
2023/08/01 12:18:30;;;;;;;;;;;21.90;99.90;;;;;;7321322;19;9464;-76
2023/08/01 12:20:59;;;;;;;;;;;21.70;99.90;;;;;;7321813;19;9113;-76
2023/08/01 12:23:28;;;;;;;;;;;21.70;99.90;;;;;;7318014;19;9316;-77
2023/08/01 12:25:57;;;;;;;;;;;21.70;99.90;;;;;;7321574;19;10860;-78
2023/08/01 12:28:26;;;;;;;;;;;21.90;99.90;;;;;;7320364;19;9308;-76
2023/08/01 12:30:58;;;;;;;;;;;22.00;99.90;;;;;;7319427;19;10624;-78
2023/08/01 12:33:27;;;;;;;;;;;21.90;99.90;;;;;;7320028;19;9265;-77
2023/08/01 12:35:56;;;;;;;;;;;21.70;99.90;;;;;;7318991;19;10813;-78
2023/08/01 12:38:25;;;;;;;;;;;22.00;99.90;;;;;;7320214;19;9109;-77
2023/08/01 12:40:54;;;;;;;;;;;21.90;99.90;;;;;;7319348;19;9198;-75
2023/08/01 12:43:23;;;;;;;;;;;22.10;99.90;;;;;;7321418;19;9462;-74
2023/08/01 12:45:52;;;;;;;;;;;22.10;99.90;;;;;;7314970;19;9225;-73
2023/08/01 12:48:24;;;;;;;;;;;22.10;99.90;;;;;;7318981;19;9431;-72
2023/08/01 12:50:53;;;;;;;;;;;22.40;99.90;;;;;;7319579;19;9256;-72
2023/08/01 12:53:23;;;;;;;;;;;22.30;99.90;;;;;;7321149;19;9262;-74
2023/08/01 12:55:54;;;;;;;;;;;22.30;99.30;;;;;;7317443;19;9188;-79
2023/08/01 12:58:22;;;;;;;;;;;22.30;99.90;;;;;;7321048;19;9327;-73
2023/08/01 13:00:51;;;;;;;;;;;22.50;99.90;;;;;;7318098;19;9178;-72
2023/08/01 13:03:23;;;;;;;;;;;22.50;99.90;;;;;;7321068;19;9231;-74
2023/08/01 13:05:52;;;;;;;;;;;22.30;99.40;;;;;;7318729;19;9190;-74
2023/08/01 13:08:22;;;;;;;;;;;22.20;99.80;;;;;;7318736;19;9166;-75
2023/08/01 13:10:51;;;;;;;;;;;22.10;99.90;;;;;;7318041;19;9238;-75
2023/08/01 13:13:23;;;;;;;;;;;22.10;99.90;;;;;;7319671;19;10633;-74
2023/08/01 13:15:52;;;;;;;;;;;22.30;99.40;;;;;;7319722;19;9189;-75
2023/08/01 13:18:23;;;;;;;;;;;22.30;99.50;;;;;;7316996;19;9556;-75
2023/08/01 13:20:52;;;;;;;;;;;22.10;98.60;;;;;;7319352;19;9209;-74
2023/08/01 13:23:21;;;;;;;;;;;22.20;99.40;;;;;;7321547;19;9470;-76
2023/08/01 13:25:51;;;;;;;;;;;22.10;99.50;;;;;;7316440;19;9237;-76
2023/08/01 13:28:20;;;;;;;;;;;22.00;99.70;;;;;;7320335;19;9165;-76
2023/08/01 13:30:49;;;;;;;;;;;22.00;99.90;;;;;;7317862;19;9494;-76
2023/08/01 13:33:18;;;;;;;;;;;21.90;99.90;;;;;;7319643;19;9212;-76
2023/08/01 13:35:54;;;;;;;;;;;21.80;99.90;;;;;;7316721;19;9288;-81
2023/08/01 13:38:23;;;;;;;;;;;21.60;99.90;;;;;;7319394;19;9173;-81
2023/08/01 13:40:52;;;;;;;;;;;21.90;99.90;;;;;;7319953;19;9474;-83
2023/08/01 13:43:21;;;;;;;;;;;21.70;99.90;;;;;;7318198;19;9231;-83
2023/08/01 13:45:50;;;;;;;;;;;21.60;99.90;;;;;;7316746;19;9521;-83
2023/08/01 13:48:19;;;;;;;;;;;21.60;99.90;;;;;;7309195;19;9665;-82
2023/08/01 13:50:50;;;;;;;;;;;21.60;99.90;;;;;;7318375;19;9462;-76
2023/08/01 13:53:20;;;;;;;;;;;21.50;99.90;;;;;;7320974;19;9113;-79
2023/08/01 13:55:49;;;;;;;;;;;21.50;99.90;;;;;;7316089;19;10126;-87
2023/08/01 13:58:18;;;;;;;;;;;21.50;99.90;;;;;;7321467;19;9332;-87
2023/08/01 14:00:48;;;;;;;;;;;21.60;99.90;;;;;;7323884;19;11183;-78
2023/08/01 14:03:17;;;;;;;;;;;21.60;99.90;;;;;;7325589;19;9417;-86
2023/08/01 14:05:46;;;;;;;;;;;21.60;99.90;;;;;;7322141;19;9978;-84
2023/08/01 14:08:17;;;;;;;;;;;21.60;99.90;;;;;;7325961;19;9217;-84
2023/08/01 14:10:46;;;;;;;;;;;21.60;99.90;;;;;;7328456;19;9081;-79
2023/08/01 14:13:15;;;;;;;;;;;21.50;99.90;;;;;;7315418;19;9288;-85
2023/08/01 14:15:44;;;;;;;;;;;21.60;99.90;;;;;;7317571;19;9466;-85
2023/08/01 14:18:13;;;;;;;;;;;21.80;99.90;;;;;;7323086;19;9977;-82
2023/08/01 14:20:42;;;;;;;;;;;21.90;99.90;;;;;;7314686;19;9237;-82
2023/08/01 14:23:11;;;;;;;;;;;22.00;99.90;;;;;;7317517;19;9586;-82
2023/08/01 14:25:43;;;;;;;;;;;22.00;99.90;;;;;;7317645;19;9298;-82
2023/08/01 14:28:12;;;;;;;;;;;21.80;99.90;;;;;;7315336;19;10055;-82
2023/08/01 14:30:41;;;;;;;;;;;21.80;99.90;;;;;;7307720;19;9101;-83
2023/08/01 14:33:13;;;;;;;;;;;21.60;99.90;;;;;;7316659;19;8944;-83
2023/08/01 14:35:42;;;;;;;;;;;21.50;99.90;;;;;;7320903;19;9221;-83
2023/08/01 14:38:11;;;;;;;;;;;21.50;99.90;;;;;;7319762;19;9442;-84
2023/08/01 14:40:42;;;;;;;;;;;21.20;99.90;;;;;;7317489;19;9254;-84
2023/08/01 14:43:11;;;;;;;;;;;21.00;99.90;;;;;;7321101;19;9369;-84
2023/08/01 14:45:41;;;;;;;;;;;20.80;99.90;;;;;;7323410;19;9323;-85